Time,TemperatureF,DewpointF,PressureIn,WindDirection,WindDirectionDegrees,WindSpeedMPH,WindSpeedGustMPH,Humidity,HourlyPrecipIn,Conditions,Clouds,dailyrainin,SoftwareType,DateUTC
2013-12-10 00:02:00,68.2,68.0,30.14,SSW,210,0.0,0.0,99,0.00,,,0.00,weatherlink.com 1.10,2013-12-10 05:02:00,
2013-12-10 00:17:00,67.8,68.0,30.14,SSW,210,0.0,0.0,99,0.00,,,0.00,weatherlink.com 1.10,2013-12-10 05:17:00,
2013-12-10 00:32:00,67.8,68.0,30.14,SSW,210,0.0,0.0,100,0.00,,,0.00,weatherlink.com 1.10,2013-12-10 05:32:00,
2013-12-10 00:47:00,67.9,68.0,30.14,SSW,210,0.0,0.0,100,0.00,,,0.00,weatherlink.com 1.10,2013-12-10 05:47:00,
2013-12-10 01:02:00,68.4,68.0,30.14,SSW,210,0.0,2.0,100,0.00,,,0.00,weatherlink.com 1.10,2013-12-10 06:02:00,
2013-12-10 01:17:00,68.7,69.0,30.13,South,178,1.0,2.0,100,0.00,,,0.00,weatherlink.com 1.10,2013-12-10 06:17:00,
2013-12-10 01:32:00,68.8,69.0,30.13,SE,126,2.0,3.0,100,0.00,,,0.00,weatherlink.com 1.10,2013-12-10 06:32:00,
2013-12-10 01:47:00,68.8,69.0,30.13,SE,136,0.0,3.0,100,0.00,,,0.00,weatherlink.com 1.10,2013-12-10 06:47:00,
2013-12-10 02:02:00,68.6,69.0,30.12,SSE,147,0.0,1.0,100,0.00,,,0.00,weatherlink.com 1.10,2013-12-10 07:02:00,
2013-12-10 02:17:00,68.4,68.0,30.13,South,184,0.0,1.0,100,0.00,,,0.00,weatherlink.com 1.10,2013-12-10 07:17:00,
2013-12-10 02:32:00,68.3,68.0,30.13,South,176,0.0,2.0,100,0.00,,,0.00,weatherlink.com 1.10,2013-12-10 07:32:00,
2013-12-10 02:47:00,67.9,68.0,30.12,South,178,0.0,0.0,100,0.00,,,0.00,weatherlink.com 1.10,2013-12-10 07:47:00,
2013-12-10 03:02:00,67.4,67.0,30.12,South,178,0.0,0.0,100,0.00,,,0.00,weatherlink.com 1.10,2013-12-10 08:02:00,
2013-12-10 03:17:00,66.6,67.0,30.12,South,178,0.0,0.0,100,0.00,,,0.00,weatherlink.com 1.10,2013-12-10 08:17:00,
2013-12-10 03:32:00,66.2,66.0,30.13,South,179,0.0,0.0,100,0.00,,,0.00,weatherlink.com 1.10,2013-12-10 08:32:00,
2013-12-10 03:47:00,65.8,66.0,30.13,South,178,0.0,0.0,100,0.00,,,0.00,weatherlink.com 1.10,2013-12-10 08:47:00,
2013-12-10 04:02:00,65.1,65.0,30.13,South,178,0.0,0.0,100,0.00,,,0.00,weatherlink.com 1.10,2013-12-10 09:02:00,
2013-12-10 04:17:00,65.4,65.0,30.13,South,178,0.0,0.0,100,0.00,,,0.00,weatherlink.com 1.10,2013-12-10 09:17:00,
2013-12-10 04:33:00,64.9,65.0,30.13,South,178,0.0,0.0,100,0.00,,,0.00,weatherlink.com 1.10,2013-12-10 09:33:00,
2013-12-10 04:48:00,64.9,65.0,30.13,South,178,0.0,0.0,100,0.00,,,0.00,weatherlink.com 1.10,2013-12-10 09:48:00,
2013-12-10 05:03:00,64.2,64.0,30.13,South,178,0.0,0.0,100,0.01,,,0.01,weatherlink.com 1.10,2013-12-10 10:03:00,
2013-12-10 05:18:00,63.6,64.0,30.13,South,178,0.0,0.0,100,0.01,,,0.01,weatherlink.com 1.10,2013-12-10 10:18:00,
2013-12-10 05:33:00,63.5,64.0,30.14,South,178,0.0,0.0,100,0.01,,,0.01,weatherlink.com 1.10,2013-12-10 10:33:00,
2013-12-10 05:48:00,63.6,64.0,30.14,South,179,0.0,0.0,100,0.01,,,0.01,weatherlink.com 1.10,2013-12-10 10:48:00,
2013-12-10 06:03:00,63.5,64.0,30.14,South,178,0.0,0.0,100,0.00,,,0.01,weatherlink.com 1.10,2013-12-10 11:03:00,
2013-12-10 06:18:00,62.9,63.0,30.14,South,179,0.0,0.0,100,0.00,,,0.01,weatherlink.com 1.10,2013-12-10 11:18:00,
2013-12-10 06:33:00,64.0,64.0,30.14,South,179,0.0,0.0,100,0.00,,,0.01,weatherlink.com 1.10,2013-12-10 11:33:00,
2013-12-10 06:48:00,63.8,64.0,30.15,South,178,0.0,0.0,100,0.00,,,0.01,weatherlink.com 1.10,2013-12-10 11:48:00,
2013-12-10 07:03:00,63.9,64.0,30.15,South,179,0.0,0.0,100,0.00,,,0.01,weatherlink.com 1.10,2013-12-10 12:03:00,
2013-12-10 07:18:00,63.1,63.0,30.16,South,178,0.0,0.0,100,0.00,,,0.01,weatherlink.com 1.10,2013-12-10 12:18:00,
2013-12-10 07:33:00,63.0,63.0,30.16,South,179,0.0,0.0,100,0.00,,,0.01,weatherlink.com 1.10,2013-12-10 12:33:00,
2013-12-10 07:48:00,63.4,63.0,30.17,South,178,0.0,0.0,100,0.00,,,0.01,weatherlink.com 1.10,2013-12-10 12:48:00,
2013-12-10 08:03:00,65.0,65.0,30.17,South,179,0.0,0.0,100,0.00,,,0.01,weatherlink.com 1.10,2013-12-10 13:03:00,
2013-12-10 08:18:00,67.8,68.0,30.17,South,178,1.0,1.0,100,0.00,,,0.01,weatherlink.com 1.10,2013-12-10 13:18:00,
2013-12-10 08:33:00,69.2,69.0,30.17,South,171,1.0,4.0,100,0.00,,,0.01,weatherlink.com 1.10,2013-12-10 13:33:00,
2013-12-10 08:48:00,70.4,70.0,30.17,SE,131,3.0,6.0,100,0.00,,,0.01,weatherlink.com 1.10,2013-12-10 13:48:00,
2013-12-10 09:03:00,71.8,71.0,30.18,SE,139,2.0,7.0,97,0.00,,,0.01,weatherlink.com 1.10,2013-12-10 14:03:00,
2013-12-10 09:18:00,73.1,71.0,30.18,South,170,3.0,8.0,93,0.00,,,0.01,weatherlink.com 1.10,2013-12-10 14:18:00,
2013-12-10 09:33:00,74.3,71.0,30.19,South,169,3.0,7.0,89,0.00,,,0.01,weatherlink.com 1.10,2013-12-10 14:33:00,
2013-12-10 09:48:00,75.2,71.0,30.19,SSW,199,5.0,7.0,86,0.00,,,0.01,weatherlink.com 1.10,2013-12-10 14:48:00,
2013-12-10 10:03:00,75.8,71.0,30.19,SSW,195,4.0,8.0,86,0.00,,,0.01,weatherlink.com 1.10,2013-12-10 15:03:00,
2013-12-10 10:18:00,76.4,71.0,30.20,WSW,240,2.0,7.0,84,0.00,,,0.01,weatherlink.com 1.10,2013-12-10 15:18:00,
2013-12-10 10:33:00,76.7,72.0,30.19,SW,216,3.0,8.0,84,0.00,,,0.01,weatherlink.com 1.10,2013-12-10 15:33:00,
2013-12-10 10:48:00,77.2,72.0,30.19,SSE,156,1.0,8.0,84,0.00,,,0.01,weatherlink.com 1.10,2013-12-10 15:48:00,
2013-12-10 11:03:00,77.8,72.0,30.19,South,191,5.0,7.0,83,0.00,,,0.01,weatherlink.com 1.10,2013-12-10 16:03:00,
2013-12-10 11:19:00,78.1,72.0,30.19,SSW,205,6.0,8.0,81,0.00,,,0.01,weatherlink.com 1.10,2013-12-10 16:19:00,
2013-12-10 11:34:00,78.9,73.0,30.19,SE,146,3.0,5.0,81,0.00,,,0.01,weatherlink.com 1.10,2013-12-10 16:34:00,
2013-12-10 11:49:00,79.7,73.0,30.19,ESE,121,4.0,7.0,80,0.00,,,0.01,weatherlink.com 1.10,2013-12-10 16:49:00,
2013-12-10 12:04:00,79.8,73.0,30.18,WNW,288,1.0,5.0,79,0.00,,,0.01,weatherlink.com 1.10,2013-12-10 17:04:00,
2013-12-10 12:19:00,80.0,73.0,30.17,WSW,250,2.0,7.0,78,0.00,,,0.01,weatherlink.com 1.10,2013-12-10 17:19:00,
2013-12-10 12:34:00,79.7,73.0,30.16,SSE,161,7.0,9.0,79,0.00,,,0.01,weatherlink.com 1.10,2013-12-10 17:34:00,
2013-12-10 12:49:00,79.2,72.0,30.15,SW,223,7.0,9.0,79,0.00,,,0.01,weatherlink.com 1.10,2013-12-10 17:49:00,
2013-12-10 13:04:00,79.6,72.0,30.14,South,176,4.0,9.0,78,0.00,,,0.01,weatherlink.com 1.10,2013-12-10 18:04:00,
2013-12-10 13:19:00,80.0,73.0,30.13,South,170,6.0,9.0,78,0.00,,,0.01,weatherlink.com 1.10,2013-12-10 18:19:00,
2013-12-10 13:34:00,79.7,73.0,30.13,SE,143,5.0,9.0,79,0.00,,,0.01,weatherlink.com 1.10,2013-12-10 18:34:00,
2013-12-10 13:49:00,79.6,73.0,30.13,West,259,3.0,8.0,79,0.00,,,0.01,weatherlink.com 1.10,2013-12-10 18:49:00,
2013-12-10 14:04:00,79.5,73.0,30.12,South,183,4.0,9.0,80,0.00,,,0.01,weatherlink.com 1.10,2013-12-10 19:04:00,
2013-12-10 14:19:00,78.6,72.0,30.12,WSW,256,1.0,11.0,81,0.00,,,0.01,weatherlink.com 1.10,2013-12-10 19:19:00,
2013-12-10 14:34:00,78.0,73.0,30.12,SSW,205,3.0,6.0,83,0.00,,,0.01,weatherlink.com 1.10,2013-12-10 19:34:00,
2013-12-10 14:49:00,78.9,73.0,30.12,SW,233,0.0,9.0,82,0.00,,,0.01,weatherlink.com 1.10,2013-12-10 19:49:00,
2013-12-10 15:04:00,79.6,73.0,30.12,WSW,252,2.0,6.0,80,0.00,,,0.01,weatherlink.com 1.10,2013-12-10 20:04:00,
2013-12-10 15:19:00,79.0,73.0,30.12,NW,320,1.0,5.0,81,0.00,,,0.01,weatherlink.com 1.10,2013-12-10 20:19:00,
2013-12-10 15:34:00,78.0,73.0,30.12,SW,224,2.0,6.0,83,0.00,,,0.01,weatherlink.com 1.10,2013-12-10 20:34:00,
2013-12-10 15:49:00,77.5,72.0,30.13,SW,231,2.0,5.0,84,0.00,,,0.01,weatherlink.com 1.10,2013-12-10 20:49:00,
2013-12-10 16:04:00,77.1,72.0,30.12,WSW,250,1.0,4.0,85,0.00,,,0.01,weatherlink.com 1.10,2013-12-10 21:04:00,
2013-12-10 16:19:00,76.5,72.0,30.12,SW,227,1.0,4.0,86,0.00,,,0.01,weatherlink.com 1.10,2013-12-10 21:19:00,
2013-12-10 16:34:00,75.8,72.0,30.12,SSE,153,3.0,6.0,87,0.00,,,0.01,weatherlink.com 1.10,2013-12-10 21:34:00,
2013-12-10 16:49:00,75.1,72.0,30.12,WSW,244,1.0,6.0,89,0.00,,,0.01,weatherlink.com 1.10,2013-12-10 21:49:00,
2013-12-10 17:04:00,74.8,72.0,30.13,WSW,242,0.0,3.0,90,0.00,,,0.01,weatherlink.com 1.10,2013-12-10 22:04:00,
2013-12-10 17:19:00,74.2,72.0,30.13,West,268,0.0,3.0,91,0.00,,,0.01,weatherlink.com 1.10,2013-12-10 22:19:00,
2013-12-10 17:34:00,73.6,71.0,30.13,SSW,202,2.0,4.0,92,0.00,,,0.01,weatherlink.com 1.10,2013-12-10 22:34:00,
2013-12-10 17:49:00,73.0,71.0,30.14,SSW,210,1.0,1.0,93,0.00,,,0.01,weatherlink.com 1.10,2013-12-10 22:49:00,
2013-12-10 18:04:00,72.4,71.0,30.14,SSW,196,0.0,2.0,95,0.00,,,0.01,weatherlink.com 1.10,2013-12-10 23:04:00,
2013-12-10 18:19:00,72.0,71.0,30.14,SSW,195,0.0,0.0,96,0.00,,,0.01,weatherlink.com 1.10,2013-12-10 23:19:00,
2013-12-10 18:34:00,71.7,71.0,30.15,SW,219,0.0,0.0,96,0.00,,,0.01,weatherlink.com 1.10,2013-12-10 23:34:00,
2013-12-10 18:49:00,71.7,71.0,30.15,SW,218,0.0,0.0,97,0.00,,,0.01,weatherlink.com 1.10,2013-12-10 23:49:00,
2013-12-10 19:04:00,71.9,71.0,30.16,WSW,253,0.0,0.0,97,0.00,,,0.01,weatherlink.com 1.10,2013-12-11 00:04:00,
2013-12-10 19:19:00,72.2,71.0,30.17,NW,309,0.0,2.0,97,0.00,,,0.01,weatherlink.com 1.10,2013-12-11 00:19:00,
2013-12-10 19:34:00,71.8,71.0,30.17,NNW,330,1.0,5.0,96,0.00,,,0.01,weatherlink.com 1.10,2013-12-11 00:34:00,
2013-12-10 19:49:00,71.4,70.0,30.17,WNW,295,0.0,3.0,95,0.00,,,0.01,weatherlink.com 1.10,2013-12-11 00:49:00,
2013-12-10 20:04:00,71.3,70.0,30.17,NNW,333,0.0,3.0,94,0.00,,,0.01,weatherlink.com 1.10,2013-12-11 01:04:00,
2013-12-10 20:19:00,71.4,70.0,30.18,NNW,330,0.0,1.0,94,0.00,,,0.01,weatherlink.com 1.10,2013-12-11 01:19:00,
2013-12-10 20:34:00,71.4,70.0,30.18,NNW,330,0.0,1.0,94,0.00,,,0.01,weatherlink.com 1.10,2013-12-11 01:34:00,
2013-12-10 20:49:00,71.5,70.0,30.18,North,349,1.0,2.0,94,0.00,,,0.01,weatherlink.com 1.10,2013-12-11 01:49:00,
2013-12-10 21:04:00,71.3,70.0,30.18,North,357,0.0,3.0,94,0.00,,,0.01,weatherlink.com 1.10,2013-12-11 02:04:00,
2013-12-10 21:19:00,71.3,70.0,30.18,North,354,0.0,1.0,94,0.00,,,0.01,weatherlink.com 1.10,2013-12-11 02:19:00,
2013-12-10 21:34:00,71.3,70.0,30.19,North,349,0.0,1.0,94,0.00,,,0.01,weatherlink.com 1.10,2013-12-11 02:34:00,
2013-12-10 21:49:00,71.2,69.0,30.19,North,349,0.0,1.0,94,0.00,,,0.01,weatherlink.com 1.10,2013-12-11 02:49:00,
2013-12-10 22:04:00,71.2,69.0,30.19,North,349,0.0,1.0,94,0.00,,,0.01,weatherlink.com 1.10,2013-12-11 03:04:00,
2013-12-10 22:19:00,71.1,69.0,30.19,North,8,0.0,3.0,94,0.00,,,0.01,weatherlink.com 1.10,2013-12-11 03:19:00,
2013-12-10 22:34:00,71.2,70.0,30.19,North,4,0.0,3.0,95,0.00,,,0.01,weatherlink.com 1.10,2013-12-11 03:34:00,
2013-12-10 22:50:00,70.7,70.0,30.19,NW,311,0.0,2.0,96,0.00,,,0.01,weatherlink.com 1.10,2013-12-11 03:50:00,
2013-12-10 23:04:00,70.2,69.0,30.19,NW,309,0.0,2.0,97,0.00,,,0.01,weatherlink.com 1.10,2013-12-11 04:04:00,
2013-12-10 23:19:00,69.8,69.0,30.20,NW,309,2.0,2.0,97,0.00,,,0.01,weatherlink.com 1.10,2013-12-11 04:19:00,
2013-12-10 23:34:00,69.3,68.0,30.19,WNW,298,0.0,3.0,96,0.00,,,0.01,weatherlink.com 1.10,2013-12-11 04:34:00,
2013-12-10 23:49:00,69.5,68.0,30.19,NNW,340,1.0,3.0,96,0.00,,,0.01,weatherlink.com 1.10,2013-12-11 04:49:00,